sensor_id;sensor_type;location;lat;lon;timestamp;temperature;humidity
17988;DHT22;9119;50.932;5.342;2023-02-28T00:01:25;1.20;99.90
17988;DHT22;9119;50.932;5.342;2023-02-28T00:03:50;1.20;99.90
17988;DHT22;9119;50.932;5.342;2023-02-28T00:06:17;1.20;99.90
17988;DHT22;9119;50.932;5.342;2023-02-28T00:08:42;1.30;99.90
17988;DHT22;9119;50.932;5.342;2023-02-28T00:11:11;1.30;99.90
17988;DHT22;9119;50.932;5.342;2023-02-28T00:13:40;1.20;99.90
17988;DHT22;9119;50.932;5.342;2023-02-28T00:16:11;1.10;99.90
17988;DHT22;9119;50.932;5.342;2023-02-28T00:18:38;1.10;99.90
17988;DHT22;9119;50.932;5.342;2023-02-28T00:21:04;1.20;99.90
17988;DHT22;9119;50.932;5.342;2023-02-28T00:23:30;1.20;99.90
17988;DHT22;9119;50.932;5.342;2023-02-28T00:25:56;1.00;99.90
17988;DHT22;9119;50.932;5.342;2023-02-28T00:28:22;1.00;99.90
17988;DHT22;9119;50.932;5.342;2023-02-28T00:30:48;1.10;99.90
17988;DHT22;9119;50.932;5.342;2023-02-28T00:33:14;1.00;99.90
17988;DHT22;9119;50.932;5.342;2023-02-28T00:35:44;1.00;99.90
17988;DHT22;9119;50.932;5.342;2023-02-28T00:38:12;1.00;99.90
17988;DHT22;9119;50.932;5.342;2023-02-28T00:40:38;1.00;99.90
17988;DHT22;9119;50.932;5.342;2023-02-28T00:43:04;1.10;99.90
17988;DHT22;9119;50.932;5.342;2023-02-28T00:45:30;1.00;99.90
17988;DHT22;9119;50.932;5.342;2023-02-28T00:47:55;1.00;99.90
17988;DHT22;9119;50.932;5.342;2023-02-28T00:50:21;1.00;99.90
17988;DHT22;9119;50.932;5.342;2023-02-28T00:52:47;1.10;99.90
17988;DHT22;9119;50.932;5.342;2023-02-28T00:55:13;0.90;99.90
17988;DHT22;9119;50.932;5.342;2023-02-28T00:57:39;0.80;99.90
17988;DHT22;9119;50.932;5.342;2023-02-28T01:00:05;0.80;99.90
17988;DHT22;9119;50.932;5.342;2023-02-28T01:02:31;0.80;99.90
17988;DHT22;9119;50.932;5.342;2023-02-28T01:04:57;0.90;99.90
17988;DHT22;9119;50.932;5.342;2023-02-28T01:07:23;0.90;99.90
17988;DHT22;9119;50.932;5.342;2023-02-28T01:09:49;0.90;99.90
17988;DHT22;9119;50.932;5.342;2023-02-28T01:12:15;0.90;99.90
17988;DHT22;9119;50.932;5.342;2023-02-28T01:14:41;0.90;99.90
17988;DHT22;9119;50.932;5.342;2023-02-28T01:17:08;0.90;99.90
17988;DHT22;9119;50.932;5.342;2023-02-28T01:19:33;0.80;99.90
17988;DHT22;9119;50.932;5.342;2023-02-28T01:22:04;0.90;99.90
17988;DHT22;9119;50.932;5.342;2023-02-28T01:24:30;0.90;99.90
17988;DHT22;9119;50.932;5.342;2023-02-28T01:26:55;0.80;99.90
17988;DHT22;9119;50.932;5.342;2023-02-28T01:29:21;0.90;99.90
17988;DHT22;9119;50.932;5.342;2023-02-28T01:31:47;0.90;99.90
17988;DHT22;9119;50.932;5.342;2023-02-28T01:34:12;0.90;99.90
17988;DHT22;9119;50.932;5.342;2023-02-28T01:36:38;1.00;99.90
17988;DHT22;9119;50.932;5.342;2023-02-28T01:39:04;0.90;99.90
17988;DHT22;9119;50.932;5.342;2023-02-28T01:41:32;0.90;99.90
17988;DHT22;9119;50.932;5.342;2023-02-28T01:44:04;0.80;99.90
17988;DHT22;9119;50.932;5.342;2023-02-28T01:46:34;0.80;99.90
17988;DHT22;9119;50.932;5.342;2023-02-28T01:49:08;0.70;99.90
17988;DHT22;9119;50.932;5.342;2023-02-28T01:51:51;0.70;99.90
17988;DHT22;9119;50.932;5.342;2023-02-28T01:54:25;0.70;99.90
17988;DHT22;9119;50.932;5.342;2023-02-28T01:57:10;0.60;99.90
17988;DHT22;9119;50.932;5.342;2023-02-28T01:59:46;0.50;99.90
17988;DHT22;9119;50.932;5.342;2023-02-28T02:02:17;0.50;99.90
17988;DHT22;9119;50.932;5.342;2023-02-28T02:05:08;0.50;99.90
17988;DHT22;9119;50.932;5.342;2023-02-28T02:07:37;0.40;99.90
17988;DHT22;9119;50.932;5.342;2023-02-28T02:10:10;0.40;99.90
17988;DHT22;9119;50.932;5.342;2023-02-28T02:13:05;0.30;99.90
17988;DHT22;9119;50.932;5.342;2023-02-28T02:37:46;0.50;99.90
17988;DHT22;9119;50.932;5.342;2023-02-28T02:40:25;0.60;99.90
17988;DHT22;9119;50.932;5.342;2023-02-28T02:43:08;0.40;99.90
17988;DHT22;9119;50.932;5.342;2023-02-28T02:45:52;0.40;99.90
17988;DHT22;9119;50.932;5.342;2023-02-28T02:48:23;0.40;99.90
17988;DHT22;9119;50.932;5.342;2023-02-28T02:50:55;0.30;99.90
17988;DHT22;9119;50.932;5.342;2023-02-28T02:53:26;0.40;99.90
17988;DHT22;9119;50.932;5.342;2023-02-28T02:55:53;0.40;99.90
17988;DHT22;9119;50.932;5.342;2023-02-28T02:58:24;0.50;99.90
17988;DHT22;9119;50.932;5.342;2023-02-28T03:00:53;0.40;99.90
17988;DHT22;9119;50.932;5.342;2023-02-28T03:03:21;0.40;99.90
17988;DHT22;9119;50.932;5.342;2023-02-28T03:05:58;0.30;99.90
17988;DHT22;9119;50.932;5.342;2023-02-28T03:08:25;0.30;99.90
17988;DHT22;9119;50.932;5.342;2023-02-28T03:10:59;0.30;99.90
17988;DHT22;9119;50.932;5.342;2023-02-28T03:19:32;0.30;99.90
17988;DHT22;9119;50.932;5.342;2023-02-28T03:32:33;0.20;99.90
17988;DHT22;9119;50.932;5.342;2023-02-28T03:35:02;0.10;99.90
17988;DHT22;9119;50.932;5.342;2023-02-28T03:37:32;0.10;99.90
17988;DHT22;9119;50.932;5.342;2023-02-28T03:40:11;0.00;99.90
17988;DHT22;9119;50.932;5.342;2023-02-28T03:42:41;-0.10;99.90
17988;DHT22;9119;50.932;5.342;2023-02-28T03:45:15;-0.10;99.90
17988;DHT22;9119;50.932;5.342;2023-02-28T03:47:49;-0.10;99.90
17988;DHT22;9119;50.932;5.342;2023-02-28T03:50:26;-0.10;99.90
17988;DHT22;9119;50.932;5.342;2023-02-28T03:52:58;-0.10;99.90
17988;DHT22;9119;50.932;5.342;2023-02-28T03:55:29;-0.10;99.90
17988;DHT22;9119;50.932;5.342;2023-02-28T03:58:22;-0.10;99.90
17988;DHT22;9119;50.932;5.342;2023-02-28T04:00:55;0.00;99.90
17988;DHT22;9119;50.932;5.342;2023-02-28T04:03:23;0.00;99.90
17988;DHT22;9119;50.932;5.342;2023-02-28T04:05:53;0.00;99.90
17988;DHT22;9119;50.932;5.342;2023-02-28T04:08:21;0.10;99.90
17988;DHT22;9119;50.932;5.342;2023-02-28T04:10:51;0.00;99.90
17988;DHT22;9119;50.932;5.342;2023-02-28T04:13:18;0.00;99.90
17988;DHT22;9119;50.932;5.342;2023-02-28T04:15:44;0.00;99.90
17988;DHT22;9119;50.932;5.342;2023-02-28T04:18:09;0.00;99.90
17988;DHT22;9119;50.932;5.342;2023-02-28T04:20:36;0.00;99.90
17988;DHT22;9119;50.932;5.342;2023-02-28T04:23:02;0.00;99.90
17988;DHT22;9119;50.932;5.342;2023-02-28T04:25:27;0.00;99.90
17988;DHT22;9119;50.932;5.342;2023-02-28T04:27:53;0.10;99.90
17988;DHT22;9119;50.932;5.342;2023-02-28T04:30:18;0.10;99.90
17988;DHT22;9119;50.932;5.342;2023-02-28T04:32:44;0.00;99.90
17988;DHT22;9119;50.932;5.342;2023-02-28T04:35:10;0.10;99.90
17988;DHT22;9119;50.932;5.342;2023-02-28T04:37:35;-0.10;99.90
17988;DHT22;9119;50.932;5.342;2023-02-28T04:40:03;-0.10;99.90
17988;DHT22;9119;50.932;5.342;2023-02-28T04:42:29;-0.10;99.90
17988;DHT22;9119;50.932;5.342;2023-02-28T04:45:04;-0.20;99.90
17988;DHT22;9119;50.932;5.342;2023-02-28T04:47:30;-0.20;99.90
17988;DHT22;9119;50.932;5.342;2023-02-28T04:49:55;-0.10;99.90
17988;DHT22;9119;50.932;5.342;2023-02-28T04:52:21;0.00;99.90
17988;DHT22;9119;50.932;5.342;2023-02-28T04:54:47;-0.20;99.90
17988;DHT22;9119;50.932;5.342;2023-02-28T04:57:13;-0.20;99.90
17988;DHT22;9119;50.932;5.342;2023-02-28T04:59:38;-0.20;99.90
17988;DHT22;9119;50.932;5.342;2023-02-28T05:02:05;-0.10;99.90
17988;DHT22;9119;50.932;5.342;2023-02-28T05:04:33;-0.20;99.90
17988;DHT22;9119;50.932;5.342;2023-02-28T05:07:00;-0.20;99.90
17988;DHT22;9119;50.932;5.342;2023-02-28T05:09:25;-0.20;99.90
17988;DHT22;9119;50.932;5.342;2023-02-28T05:11:51;-0.30;99.90
17988;DHT22;9119;50.932;5.342;2023-02-28T05:14:17;-0.40;99.90
17988;DHT22;9119;50.932;5.342;2023-02-28T05:16:42;-0.50;99.90
17988;DHT22;9119;50.932;5.342;2023-02-28T05:19:08;-0.40;99.90
17988;DHT22;9119;50.932;5.342;2023-02-28T05:21:39;-0.50;99.90
17988;DHT22;9119;50.932;5.342;2023-02-28T05:24:08;-0.50;99.90
17988;DHT22;9119;50.932;5.342;2023-02-28T05:26:36;-0.50;99.90
17988;DHT22;9119;50.932;5.342;2023-02-28T05:29:02;-0.50;99.90
17988;DHT22;9119;50.932;5.342;2023-02-28T05:31:28;-0.30;99.90
17988;DHT22;9119;50.932;5.342;2023-02-28T05:33:54;-0.60;99.90
17988;DHT22;9119;50.932;5.342;2023-02-28T05:36:20;-0.60;99.90
17988;DHT22;9119;50.932;5.342;2023-02-28T05:38:47;-0.70;99.90
17988;DHT22;9119;50.932;5.342;2023-02-28T05:41:13;-0.70;99.90
17988;DHT22;9119;50.932;5.342;2023-02-28T05:43:39;-0.70;99.90
17988;DHT22;9119;50.932;5.342;2023-02-28T05:46:07;-0.70;99.90
17988;DHT22;9119;50.932;5.342;2023-02-28T05:48:34;-0.70;99.90
17988;DHT22;9119;50.932;5.342;2023-02-28T05:51:00;-0.70;99.90
17988;DHT22;9119;50.932;5.342;2023-02-28T05:53:26;-0.70;99.90
17988;DHT22;9119;50.932;5.342;2023-02-28T05:55:52;-0.70;99.90
17988;DHT22;9119;50.932;5.342;2023-02-28T05:58:18;-0.70;99.90
17988;DHT22;9119;50.932;5.342;2023-02-28T06:00:44;-0.70;99.90
17988;DHT22;9119;50.932;5.342;2023-02-28T06:03:09;-0.70;99.90
17988;DHT22;9119;50.932;5.342;2023-02-28T06:05:35;-0.80;99.90
17988;DHT22;9119;50.932;5.342;2023-02-28T06:08:01;-0.80;99.90
17988;DHT22;9119;50.932;5.342;2023-02-28T06:10:26;-0.80;99.90
17988;DHT22;9119;50.932;5.342;2023-02-28T06:12:52;-0.80;99.90
17988;DHT22;9119;50.932;5.342;2023-02-28T06:15:18;-0.80;99.90
17988;DHT22;9119;50.932;5.342;2023-02-28T06:17:44;-0.80;99.90
17988;DHT22;9119;50.932;5.342;2023-02-28T06:20:11;-0.80;99.90
17988;DHT22;9119;50.932;5.342;2023-02-28T06:22:38;-0.80;99.90
17988;DHT22;9119;50.932;5.342;2023-02-28T06:25:05;-0.70;99.90
17988;DHT22;9119;50.932;5.342;2023-02-28T06:27:32;-0.80;99.90
17988;DHT22;9119;50.932;5.342;2023-02-28T06:29:57;-0.70;99.90
17988;DHT22;9119;50.932;5.342;2023-02-28T06:32:23;-0.90;99.90
17988;DHT22;9119;50.932;5.342;2023-02-28T06:34:51;-0.80;99.90
17988;DHT22;9119;50.932;5.342;2023-02-28T06:37:17;-0.80;99.90
17988;DHT22;9119;50.932;5.342;2023-02-28T06:39:43;-0.70;99.90
17988;DHT22;9119;50.932;5.342;2023-02-28T06:42:09;-0.70;99.90
17988;DHT22;9119;50.932;5.342;2023-02-28T06:44:35;-0.70;99.90
17988;DHT22;9119;50.932;5.342;2023-02-28T06:47:02;-0.80;99.90
17988;DHT22;9119;50.932;5.342;2023-02-28T06:49:29;-0.80;99.90
17988;DHT22;9119;50.932;5.342;2023-02-28T06:51:55;-0.80;99.90
17988;DHT22;9119;50.932;5.342;2023-02-28T06:54:21;-0.90;99.90
17988;DHT22;9119;50.932;5.342;2023-02-28T06:56:47;-0.80;99.90
17988;DHT22;9119;50.932;5.342;2023-02-28T06:59:12;-0.80;99.90
17988;DHT22;9119;50.932;5.342;2023-02-28T07:01:39;-0.80;99.90
17988;DHT22;9119;50.932;5.342;2023-02-28T07:04:05;-0.80;99.90
17988;DHT22;9119;50.932;5.342;2023-02-28T07:06:32;-0.80;99.90
17988;DHT22;9119;50.932;5.342;2023-02-28T07:08:58;-0.80;99.90
17988;DHT22;9119;50.932;5.342;2023-02-28T07:11:26;-0.50;99.90
17988;DHT22;9119;50.932;5.342;2023-02-28T07:13:56;-0.70;99.90
17988;DHT22;9119;50.932;5.342;2023-02-28T07:16:23;-0.60;99.90
17988;DHT22;9119;50.932;5.342;2023-02-28T07:18:48;-0.60;99.90
17988;DHT22;9119;50.932;5.342;2023-02-28T07:21:15;-0.50;99.90
17988;DHT22;9119;50.932;5.342;2023-02-28T07:23:41;-0.70;99.90
17988;DHT22;9119;50.932;5.342;2023-02-28T07:26:11;-0.60;99.90
17988;DHT22;9119;50.932;5.342;2023-02-28T07:28:38;-0.50;99.90
17988;DHT22;9119;50.932;5.342;2023-02-28T07:31:07;-0.40;99.90
17988;DHT22;9119;50.932;5.342;2023-02-28T07:33:33;-0.60;99.90
17988;DHT22;9119;50.932;5.342;2023-02-28T07:36:09;-0.50;99.90
17988;DHT22;9119;50.932;5.342;2023-02-28T07:38:36;-0.40;99.90
17988;DHT22;9119;50.932;5.342;2023-02-28T07:41:02;-0.30;99.90
17988;DHT22;9119;50.932;5.342;2023-02-28T07:43:31;-0.10;99.90
17988;DHT22;9119;50.932;5.342;2023-02-28T07:46:09;-0.20;99.90
17988;DHT22;9119;50.932;5.342;2023-02-28T07:48:36;-0.10;99.90
17988;DHT22;9119;50.932;5.342;2023-02-28T07:51:02;0.00;99.90
17988;DHT22;9119;50.932;5.342;2023-02-28T07:53:28;0.00;99.90
17988;DHT22;9119;50.932;5.342;2023-02-28T07:55:55;0.00;99.90
17988;DHT22;9119;50.932;5.342;2023-02-28T07:58:21;0.20;99.90
17988;DHT22;9119;50.932;5.342;2023-02-28T08:00:47;0.10;99.90
17988;DHT22;9119;50.932;5.342;2023-02-28T08:03:13;0.10;99.90
17988;DHT22;9119;50.932;5.342;2023-02-28T08:05:41;0.30;99.90
17988;DHT22;9119;50.932;5.342;2023-02-28T08:08:07;0.30;99.90
17988;DHT22;9119;50.932;5.342;2023-02-28T08:10:33;0.40;99.90
17988;DHT22;9119;50.932;5.342;2023-02-28T08:12:59;0.60;99.90
17988;DHT22;9119;50.932;5.342;2023-02-28T08:15:25;0.70;99.90
17988;DHT22;9119;50.932;5.342;2023-02-28T08:17:51;0.60;99.90
17988;DHT22;9119;50.932;5.342;2023-02-28T08:20:17;0.70;99.90
17988;DHT22;9119;50.932;5.342;2023-02-28T08:22:42;0.70;99.90
17988;DHT22;9119;50.932;5.342;2023-02-28T08:25:08;0.90;99.90
17988;DHT22;9119;50.932;5.342;2023-02-28T08:27:35;1.00;99.90
17988;DHT22;9119;50.932;5.342;2023-02-28T08:30:01;1.10;99.90
17988;DHT22;9119;50.932;5.342;2023-02-28T08:32:26;1.30;99.90
17988;DHT22;9119;50.932;5.342;2023-02-28T08:34:52;1.40;99.90
17988;DHT22;9119;50.932;5.342;2023-02-28T08:37:18;1.50;99.90
17988;DHT22;9119;50.932;5.342;2023-02-28T08:39:43;1.60;99.90
17988;DHT22;9119;50.932;5.342;2023-02-28T08:42:09;1.80;99.90
17988;DHT22;9119;50.932;5.342;2023-02-28T08:44:35;1.90;99.90
17988;DHT22;9119;50.932;5.342;2023-02-28T08:47:01;2.10;99.90
17988;DHT22;9119;50.932;5.342;2023-02-28T08:49:28;2.20;99.90
17988;DHT22;9119;50.932;5.342;2023-02-28T08:51:56;2.30;99.90
17988;DHT22;9119;50.932;5.342;2023-02-28T08:54:23;2.40;99.90
17988;DHT22;9119;50.932;5.342;2023-02-28T08:56:49;2.60;99.90
17988;DHT22;9119;50.932;5.342;2023-02-28T08:59:14;2.70;99.90
17988;DHT22;9119;50.932;5.342;2023-02-28T09:01:40;2.90;99.90
17988;DHT22;9119;50.932;5.342;2023-02-28T09:04:07;3.50;99.90
17988;DHT22;9119;50.932;5.342;2023-02-28T09:06:37;3.70;99.90
17988;DHT22;9119;50.932;5.342;2023-02-28T09:09:05;3.90;99.90
17988;DHT22;9119;50.932;5.342;2023-02-28T09:11:33;4.40;99.90
17988;DHT22;9119;50.932;5.342;2023-02-28T09:14:00;4.90;99.90
17988;DHT22;9119;50.932;5.342;2023-02-28T09:16:29;5.50;99.90
17988;DHT22;9119;50.932;5.342;2023-02-28T09:18:56;5.40;99.90
17988;DHT22;9119;50.932;5.342;2023-02-28T09:21:21;5.70;99.90
17988;DHT22;9119;50.932;5.342;2023-02-28T09:23:48;6.10;99.90
17988;DHT22;9119;50.932;5.342;2023-02-28T09:26:23;5.90;99.90
17988;DHT22;9119;50.932;5.342;2023-02-28T09:28:49;4.80;99.90
17988;DHT22;9119;50.932;5.342;2023-02-28T09:31:23;3.80;99.90
17988;DHT22;9119;50.932;5.342;2023-02-28T09:33:51;3.50;99.90
17988;DHT22;9119;50.932;5.342;2023-02-28T09:36:17;3.20;99.90
17988;DHT22;9119;50.932;5.342;2023-02-28T09:38:43;3.10;99.90
17988;DHT22;9119;50.932;5.342;2023-02-28T09:41:19;3.10;99.90
17988;DHT22;9119;50.932;5.342;2023-02-28T09:43:51;3.00;99.90
17988;DHT22;9119;50.932;5.342;2023-02-28T09:46:34;3.00;99.90
17988;DHT22;9119;50.932;5.342;2023-02-28T09:49:23;3.00;99.90
17988;DHT22;9119;50.932;5.342;2023-02-28T09:52:01;3.20;99.90
17988;DHT22;9119;50.932;5.342;2023-02-28T09:54:31;3.40;99.90
17988;DHT22;9119;50.932;5.342;2023-02-28T09:57:04;3.30;99.90
17988;DHT22;9119;50.932;5.342;2023-02-28T10:00:10;3.40;99.90
17988;DHT22;9119;50.932;5.342;2023-02-28T10:02:55;3.40;99.90
17988;DHT22;9119;50.932;5.342;2023-02-28T10:05:36;3.30;99.90
17988;DHT22;9119;50.932;5.342;2023-02-28T10:08:13;3.20;99.90
17988;DHT22;9119;50.932;5.342;2023-02-28T10:10:43;3.30;99.90
17988;DHT22;9119;50.932;5.342;2023-02-28T10:18:47;3.30;99.90
17988;DHT22;9119;50.932;5.342;2023-02-28T10:21:27;3.50;99.90
17988;DHT22;9119;50.932;5.342;2023-02-28T10:24:02;3.50;99.90
17988;DHT22;9119;50.932;5.342;2023-02-28T10:26:32;3.50;99.90
17988;DHT22;9119;50.932;5.342;2023-02-28T10:28:58;3.60;99.90
17988;DHT22;9119;50.932;5.342;2023-02-28T10:31:24;3.70;99.90
17988;DHT22;9119;50.932;5.342;2023-02-28T10:33:50;3.50;99.90
17988;DHT22;9119;50.932;5.342;2023-02-28T10:36:18;3.60;99.90
17988;DHT22;9119;50.932;5.342;2023-02-28T10:38:47;3.70;99.90
17988;DHT22;9119;50.932;5.342;2023-02-28T10:41:31;3.80;99.90
17988;DHT22;9119;50.932;5.342;2023-02-28T10:44:20;3.50;99.90
17988;DHT22;9119;50.932;5.342;2023-02-28T10:46:48;3.40;99.90
17988;DHT22;9119;50.932;5.342;2023-02-28T10:49:25;3.40;99.90
17988;DHT22;9119;50.932;5.342;2023-02-28T10:52:00;3.50;99.90
17988;DHT22;9119;50.932;5.342;2023-02-28T10:54:34;3.50;99.90
17988;DHT22;9119;50.932;5.342;2023-02-28T10:57:20;3.60;99.90
17988;DHT22;9119;50.932;5.342;2023-02-28T11:02:39;3.40;99.90
17988;DHT22;9119;50.932;5.342;2023-02-28T11:05:25;3.50;99.90
17988;DHT22;9119;50.932;5.342;2023-02-28T11:07:56;3.50;99.90
17988;DHT22;9119;50.932;5.342;2023-02-28T11:10:26;3.50;99.90
17988;DHT22;9119;50.932;5.342;2023-02-28T11:12:57;3.60;99.90
17988;DHT22;9119;50.932;5.342;2023-02-28T11:15:26;3.60;99.90
17988;DHT22;9119;50.932;5.342;2023-02-28T11:17:56;3.70;99.90
17988;DHT22;9119;50.932;5.342;2023-02-28T11:20:25;3.70;99.90
17988;DHT22;9119;50.932;5.342;2023-02-28T11:22:52;3.90;99.90
17988;DHT22;9119;50.932;5.342;2023-02-28T11:27:56;4.00;99.90
17988;DHT22;9119;50.932;5.342;2023-02-28T11:30:39;4.00;99.90
17988;DHT22;9119;50.932;5.342;2023-02-28T11:33:28;4.10;99.90
17988;DHT22;9119;50.932;5.342;2023-02-28T11:36:03;4.10;99.90
17988;DHT22;9119;50.932;5.342;2023-02-28T11:38:29;3.90;99.90
17988;DHT22;9119;50.932;5.342;2023-02-28T11:43:56;3.80;99.90
17988;DHT22;9119;50.932;5.342;2023-02-28T11:46:44;3.80;99.90
17988;DHT22;9119;50.932;5.342;2023-02-28T11:49:35;4.00;99.90
17988;DHT22;9119;50.932;5.342;2023-02-28T11:52:15;4.10;99.90
17988;DHT22;9119;50.932;5.342;2023-02-28T11:58:05;4.30;99.90
17988;DHT22;9119;50.932;5.342;2023-02-28T12:00:39;4.20;99.90
17988;DHT22;9119;50.932;5.342;2023-02-28T12:11:12;4.20;99.90
17988;DHT22;9119;50.932;5.342;2023-02-28T12:14:10;4.20;99.90
17988;DHT22;9119;50.932;5.342;2023-02-28T12:27:07;4.10;99.90
17988;DHT22;9119;50.932;5.342;2023-02-28T12:29:48;4.20;99.90
17988;DHT22;9119;50.932;5.342;2023-02-28T12:32:32;4.30;99.90
17988;DHT22;9119;50.932;5.342;2023-02-28T12:37:38;4.40;99.90
17988;DHT22;9119;50.932;5.342;2023-02-28T12:40:10;4.40;99.90
17988;DHT22;9119;50.932;5.342;2023-02-28T12:42:40;4.40;99.90
17988;DHT22;9119;50.932;5.342;2023-02-28T12:47:41;4.20;99.90
17988;DHT22;9119;50.932;5.342;2023-02-28T12:50:10;4.40;99.90
17988;DHT22;9119;50.932;5.342;2023-02-28T12:55:40;4.50;99.90
17988;DHT22;9119;50.932;5.342;2023-02-28T12:58:26;4.50;99.90
17988;DHT22;9119;50.932;5.342;2023-02-28T13:04:39;4.60;99.90
17988;DHT22;9119;50.932;5.342;2023-02-28T13:10:19;4.60;99.90
17988;DHT22;9119;50.932;5.342;2023-02-28T13:12:53;4.40;99.90
17988;DHT22;9119;50.932;5.342;2023-02-28T13:15:27;4.30;99.90
17988;DHT22;9119;50.932;5.342;2023-02-28T13:17:58;4.50;99.90
17988;DHT22;9119;50.932;5.342;2023-02-28T13:20:35;4.60;99.90
17988;DHT22;9119;50.932;5.342;2023-02-28T13:23:02;4.60;99.90
17988;DHT22;9119;50.932;5.342;2023-02-28T13:28:03;4.40;99.90
17988;DHT22;9119;50.932;5.342;2023-02-28T13:33:36;4.60;99.90
17988;DHT22;9119;50.932;5.342;2023-02-28T13:38:54;4.80;99.90
17988;DHT22;9119;50.932;5.342;2023-02-28T14:00:17;4.80;99.90
17988;DHT22;9119;50.932;5.342;2023-02-28T14:02:59;4.80;99.90
17988;DHT22;9119;50.932;5.342;2023-02-28T14:05:27;4.90;99.90
17988;DHT22;9119;50.932;5.342;2023-02-28T14:07:57;4.70;99.90
17988;DHT22;9119;50.932;5.342;2023-02-28T14:10:32;4.80;99.90
17988;DHT22;9119;50.932;5.342;2023-02-28T14:13:00;4.80;99.90
17988;DHT22;9119;50.932;5.342;2023-02-28T14:18:01;4.90;99.90
17988;DHT22;9119;50.932;5.342;2023-02-28T14:20:31;4.80;99.90
17988;DHT22;9119;50.932;5.342;2023-02-28T14:25:55;4.80;99.90
17988;DHT22;9119;50.932;5.342;2023-02-28T14:34:36;4.50;99.90
17988;DHT22;9119;50.932;5.342;2023-02-28T14:37:03;4.60;99.90
17988;DHT22;9119;50.932;5.342;2023-02-28T14:39:30;4.60;99.90
17988;DHT22;9119;50.932;5.342;2023-02-28T14:41:57;4.60;99.90
17988;DHT22;9119;50.932;5.342;2023-02-28T14:44:28;4.50;99.90
17988;DHT22;9119;50.932;5.342;2023-02-28T14:46:56;4.60;99.90
17988;DHT22;9119;50.932;5.342;2023-02-28T14:49:31;4.60;99.90
17988;DHT22;9119;50.932;5.342;2023-02-28T14:54:36;4.70;99.90
17988;DHT22;9119;50.932;5.342;2023-02-28T14:57:02;4.80;99.90
17988;DHT22;9119;50.932;5.342;2023-02-28T14:59:35;4.70;99.90
17988;DHT22;9119;50.932;5.342;2023-02-28T15:02:21;4.70;99.90
17988;DHT22;9119;50.932;5.342;2023-02-28T15:04:59;4.60;99.90
17988;DHT22;9119;50.932;5.342;2023-02-28T15:07:26;4.60;99.90
17988;DHT22;9119;50.932;5.342;2023-02-28T15:10:09;4.60;99.90
17988;DHT22;9119;50.932;5.342;2023-02-28T15:12:37;4.90;99.90
17988;DHT22;9119;50.932;5.342;2023-02-28T15:15:05;4.60;99.90
17988;DHT22;9119;50.932;5.342;2023-02-28T15:17:33;4.60;99.90
17988;DHT22;9119;50.932;5.342;2023-02-28T15:19:59;4.60;99.90
17988;DHT22;9119;50.932;5.342;2023-02-28T15:22:34;4.60;99.90
17988;DHT22;9119;50.932;5.342;2023-02-28T15:25:02;4.50;99.90
17988;DHT22;9119;50.932;5.342;2023-02-28T15:27:32;4.50;99.90
17988;DHT22;9119;50.932;5.342;2023-02-28T15:30:01;4.60;99.90
17988;DHT22;9119;50.932;5.342;2023-02-28T15:32:33;4.70;99.90
17988;DHT22;9119;50.932;5.342;2023-02-28T15:35:38;4.70;99.90
17988;DHT22;9119;50.932;5.342;2023-02-28T15:38:21;4.70;99.90
17988;DHT22;9119;50.932;5.342;2023-02-28T15:40:55;4.60;99.90
17988;DHT22;9119;50.932;5.342;2023-02-28T15:46:09;4.60;99.90
17988;DHT22;9119;50.932;5.342;2023-02-28T15:48:54;4.60;99.90
17988;DHT22;9119;50.932;5.342;2023-02-28T15:51:22;4.60;99.90
17988;DHT22;9119;50.932;5.342;2023-02-28T15:56:31;4.60;99.90
17988;DHT22;9119;50.932;5.342;2023-02-28T15:59:07;4.60;99.90
17988;DHT22;9119;50.932;5.342;2023-02-28T16:01:39;4.70;99.90
17988;DHT22;9119;50.932;5.342;2023-02-28T16:04:17;4.70;99.90
17988;DHT22;9119;50.932;5.342;2023-02-28T16:07:01;4.60;99.90
17988;DHT22;9119;50.932;5.342;2023-02-28T16:09:27;4.60;99.90
17988;DHT22;9119;50.932;5.342;2023-02-28T16:11:55;4.60;99.90
17988;DHT22;9119;50.932;5.342;2023-02-28T16:14:26;4.60;99.90
17988;DHT22;9119;50.932;5.342;2023-02-28T16:17:02;4.60;99.90
17988;DHT22;9119;50.932;5.342;2023-02-28T16:19:27;4.60;99.90
17988;DHT22;9119;50.932;5.342;2023-02-28T16:21:53;4.60;99.90
17988;DHT22;9119;50.932;5.342;2023-02-28T16:24:19;4.60;99.90
17988;DHT22;9119;50.932;5.342;2023-02-28T16:26:49;4.50;99.90
17988;DHT22;9119;50.932;5.342;2023-02-28T16:29:32;4.50;99.90
17988;DHT22;9119;50.932;5.342;2023-02-28T16:32:00;4.50;99.90
17988;DHT22;9119;50.932;5.342;2023-02-28T16:34:26;4.50;99.90
17988;DHT22;9119;50.932;5.342;2023-02-28T16:36:53;4.70;99.90
17988;DHT22;9119;50.932;5.342;2023-02-28T16:39:18;4.50;99.90
17988;DHT22;9119;50.932;5.342;2023-02-28T16:41:48;4.60;99.90
17988;DHT22;9119;50.932;5.342;2023-02-28T16:44:31;4.50;99.90
17988;DHT22;9119;50.932;5.342;2023-02-28T16:46:59;4.50;99.90
17988;DHT22;9119;50.932;5.342;2023-02-28T16:49:25;4.40;99.90
17988;DHT22;9119;50.932;5.342;2023-02-28T16:51:51;4.40;99.90
17988;DHT22;9119;50.932;5.342;2023-02-28T16:54:16;4.40;99.90
17988;DHT22;9119;50.932;5.342;2023-02-28T16:56:45;4.40;99.90
17988;DHT22;9119;50.932;5.342;2023-02-28T16:59:11;4.60;99.90
17988;DHT22;9119;50.932;5.342;2023-02-28T17:01:37;4.40;99.90
17988;DHT22;9119;50.932;5.342;2023-02-28T17:04:03;4.40;99.90
17988;DHT22;9119;50.932;5.342;2023-02-28T17:06:29;4.40;99.90
17988;DHT22;9119;50.932;5.342;2023-02-28T17:08:56;4.30;99.90
17988;DHT22;9119;50.932;5.342;2023-02-28T17:11:23;4.50;99.90
17988;DHT22;9119;50.932;5.342;2023-02-28T17:13:49;4.30;99.90
17988;DHT22;9119;50.932;5.342;2023-02-28T17:18:48;4.30;99.90
17988;DHT22;9119;50.932;5.342;2023-02-28T17:21:17;4.30;99.90
17988;DHT22;9119;50.932;5.342;2023-02-28T17:23:43;4.30;99.90
17988;DHT22;9119;50.932;5.342;2023-02-28T17:26:16;4.30;99.90
17988;DHT22;9119;50.932;5.342;2023-02-28T17:28:46;4.40;99.90
17988;DHT22;9119;50.932;5.342;2023-02-28T17:31:12;4.30;99.90
17988;DHT22;9119;50.932;5.342;2023-02-28T17:33:37;4.20;99.90
17988;DHT22;9119;50.932;5.342;2023-02-28T17:36:03;4.40;99.90
17988;DHT22;9119;50.932;5.342;2023-02-28T17:38:29;4.20;99.90
17988;DHT22;9119;50.932;5.342;2023-02-28T17:40:54;4.20;99.90
17988;DHT22;9119;50.932;5.342;2023-02-28T17:43:26;4.10;99.90
17988;DHT22;9119;50.932;5.342;2023-02-28T17:45:52;4.10;99.90
17988;DHT22;9119;50.932;5.342;2023-02-28T17:48:18;4.10;99.90
17988;DHT22;9119;50.932;5.342;2023-02-28T17:50:44;4.10;99.90
17988;DHT22;9119;50.932;5.342;2023-02-28T17:53:09;4.20;99.90
17988;DHT22;9119;50.932;5.342;2023-02-28T17:55:35;4.00;99.90
17988;DHT22;9119;50.932;5.342;2023-02-28T17:58:02;4.00;99.90
17988;DHT22;9119;50.932;5.342;2023-02-28T18:00:31;3.90;99.90
17988;DHT22;9119;50.932;5.342;2023-02-28T18:03:00;3.90;99.90
17988;DHT22;9119;50.932;5.342;2023-02-28T18:05:25;3.80;99.90
17988;DHT22;9119;50.932;5.342;2023-02-28T18:07:51;3.80;99.90
17988;DHT22;9119;50.932;5.342;2023-02-28T18:10:20;3.90;99.90
17988;DHT22;9119;50.932;5.342;2023-02-28T18:12:47;3.80;99.90
17988;DHT22;9119;50.932;5.342;2023-02-28T18:15:14;3.80;99.90
17988;DHT22;9119;50.932;5.342;2023-02-28T18:17:41;3.50;99.90
17988;DHT22;9119;50.932;5.342;2023-02-28T18:20:08;3.80;99.90
17988;DHT22;9119;50.932;5.342;2023-02-28T18:22:35;3.70;99.90
17988;DHT22;9119;50.932;5.342;2023-02-28T18:25:02;3.70;99.90
17988;DHT22;9119;50.932;5.342;2023-02-28T18:27:28;3.60;99.90
17988;DHT22;9119;50.932;5.342;2023-02-28T18:29:53;3.60;99.90
17988;DHT22;9119;50.932;5.342;2023-02-28T18:32:19;3.80;99.90